sensor_id;sensor_type;location;lat;lon;timestamp;P1;durP1;ratioP1;P2;durP2;ratioP2
71639;SDS011;60912;48.968;10.124;2023-08-12T00:01:15;6.68;;;3.92;;
71639;SDS011;60912;48.968;10.124;2023-08-12T00:03:41;10.52;;;4.15;;
71639;SDS011;60912;48.968;10.124;2023-08-12T00:06:07;5.60;;;3.40;;
71639;SDS011;60912;48.968;10.124;2023-08-12T00:08:32;11.47;;;3.97;;
71639;SDS011;60912;48.968;10.124;2023-08-12T00:10:58;7.53;;;4.07;;
71639;SDS011;60912;48.968;10.124;2023-08-12T00:13:23;9.67;;;3.87;;
71639;SDS011;60912;48.968;10.124;2023-08-12T00:15:49;10.70;;;4.10;;
71639;SDS011;60912;48.968;10.124;2023-08-12T00:18:14;7.83;;;4.10;;
71639;SDS011;60912;48.968;10.124;2023-08-12T00:20:40;5.93;;;3.80;;
71639;SDS011;60912;48.968;10.124;2023-08-12T00:23:07;6.30;;;4.20;;
71639;SDS011;60912;48.968;10.124;2023-08-12T00:25:33;7.83;;;4.50;;
71639;SDS011;60912;48.968;10.124;2023-08-12T00:27:58;8.87;;;5.07;;
71639;SDS011;60912;48.968;10.124;2023-08-12T00:30:23;9.97;;;4.67;;
71639;SDS011;60912;48.968;10.124;2023-08-12T00:32:48;6.57;;;4.05;;
71639;SDS011;60912;48.968;10.124;2023-08-12T00:35:14;8.33;;;4.87;;
71639;SDS011;60912;48.968;10.124;2023-08-12T00:37:39;6.77;;;4.80;;
71639;SDS011;60912;48.968;10.124;2023-08-12T00:40:05;8.73;;;5.53;;
71639;SDS011;60912;48.968;10.124;2023-08-12T00:42:31;10.63;;;5.50;;
71639;SDS011;60912;48.968;10.124;2023-08-12T00:44:57;9.73;;;5.38;;
71639;SDS011;60912;48.968;10.124;2023-08-12T00:47:23;7.60;;;4.80;;
71639;SDS011;60912;48.968;10.124;2023-08-12T00:49:48;6.53;;;4.75;;
71639;SDS011;60912;48.968;10.124;2023-08-12T00:52:14;8.57;;;4.33;;
71639;SDS011;60912;48.968;10.124;2023-08-12T00:54:40;9.05;;;4.38;;
71639;SDS011;60912;48.968;10.124;2023-08-12T00:57:06;6.53;;;4.47;;
71639;SDS011;60912;48.968;10.124;2023-08-12T00:59:33;8.33;;;4.97;;
71639;SDS011;60912;48.968;10.124;2023-08-12T01:02:00;7.22;;;4.65;;
71639;SDS011;60912;48.968;10.124;2023-08-12T01:04:26;7.78;;;4.40;;
71639;SDS011;60912;48.968;10.124;2023-08-12T01:06:52;6.68;;;4.38;;
71639;SDS011;60912;48.968;10.124;2023-08-12T01:09:17;7.87;;;4.17;;
71639;SDS011;60912;48.968;10.124;2023-08-12T01:11:48;6.67;;;3.80;;
71639;SDS011;60912;48.968;10.124;2023-08-12T01:17:15;5.72;;;3.10;;
71639;SDS011;60912;48.968;10.124;2023-08-12T01:19:41;5.50;;;3.40;;
71639;SDS011;60912;48.968;10.124;2023-08-12T01:22:09;6.30;;;3.23;;
71639;SDS011;60912;48.968;10.124;2023-08-12T01:27:01;7.80;;;3.45;;
71639;SDS011;60912;48.968;10.124;2023-08-12T01:29:27;6.13;;;3.70;;
71639;SDS011;60912;48.968;10.124;2023-08-12T01:31:54;6.10;;;3.83;;
71639;SDS011;60912;48.968;10.124;2023-08-12T01:34:36;7.10;;;3.88;;
71639;SDS011;60912;48.968;10.124;2023-08-12T01:37:08;8.45;;;3.75;;
71639;SDS011;60912;48.968;10.124;2023-08-12T01:39:36;6.35;;;3.72;;
71639;SDS011;60912;48.968;10.124;2023-08-12T01:42:02;7.60;;;3.67;;
71639;SDS011;60912;48.968;10.124;2023-08-12T01:44:28;8.30;;;3.80;;
71639;SDS011;60912;48.968;10.124;2023-08-12T01:46:53;9.68;;;3.65;;
71639;SDS011;60912;48.968;10.124;2023-08-12T01:49:19;7.13;;;4.00;;
71639;SDS011;60912;48.968;10.124;2023-08-12T01:51:44;8.67;;;4.00;;
71639;SDS011;60912;48.968;10.124;2023-08-12T01:54:09;6.37;;;3.40;;
71639;SDS011;60912;48.968;10.124;2023-08-12T01:56:35;5.50;;;3.80;;
71639;SDS011;60912;48.968;10.124;2023-08-12T01:59:00;7.47;;;3.80;;
71639;SDS011;60912;48.968;10.124;2023-08-12T02:01:25;4.80;;;3.70;;
71639;SDS011;60912;48.968;10.124;2023-08-12T02:03:51;8.97;;;3.70;;
71639;SDS011;60912;48.968;10.124;2023-08-12T02:06:16;5.57;;;3.47;;
71639;SDS011;60912;48.968;10.124;2023-08-12T02:08:41;5.17;;;3.33;;
71639;SDS011;60912;48.968;10.124;2023-08-12T02:11:07;7.17;;;3.77;;
71639;SDS011;60912;48.968;10.124;2023-08-12T02:13:32;5.00;;;3.50;;
71639;SDS011;60912;48.968;10.124;2023-08-12T02:15:57;5.97;;;3.47;;
71639;SDS011;60912;48.968;10.124;2023-08-12T02:18:23;6.57;;;3.43;;
71639;SDS011;60912;48.968;10.124;2023-08-12T02:20:48;5.43;;;3.70;;
71639;SDS011;60912;48.968;10.124;2023-08-12T02:23:13;8.47;;;3.50;;
71639;SDS011;60912;48.968;10.124;2023-08-12T02:25:39;6.93;;;3.60;;
71639;SDS011;60912;48.968;10.124;2023-08-12T02:28:04;4.93;;;3.40;;
71639;SDS011;60912;48.968;10.124;2023-08-12T02:30:30;5.77;;;3.30;;
71639;SDS011;60912;48.968;10.124;2023-08-12T02:32:55;6.63;;;3.50;;
71639;SDS011;60912;48.968;10.124;2023-08-12T02:35:21;6.77;;;3.50;;
71639;SDS011;60912;48.968;10.124;2023-08-12T02:37:47;8.43;;;4.07;;
71639;SDS011;60912;48.968;10.124;2023-08-12T02:40:13;5.65;;;3.53;;
71639;SDS011;60912;48.968;10.124;2023-08-12T02:42:39;8.60;;;3.73;;
71639;SDS011;60912;48.968;10.124;2023-08-12T02:45:04;7.90;;;3.80;;
71639;SDS011;60912;48.968;10.124;2023-08-12T02:47:31;5.15;;;3.42;;
71639;SDS011;60912;48.968;10.124;2023-08-12T02:49:56;6.87;;;3.63;;
71639;SDS011;60912;48.968;10.124;2023-08-12T02:52:21;5.83;;;3.43;;
71639;SDS011;60912;48.968;10.124;2023-08-12T02:54:47;6.82;;;3.90;;
71639;SDS011;60912;48.968;10.124;2023-08-12T02:57:13;5.37;;;3.60;;
71639;SDS011;60912;48.968;10.124;2023-08-12T02:59:38;6.38;;;3.47;;
71639;SDS011;60912;48.968;10.124;2023-08-12T03:02:04;5.30;;;3.37;;
71639;SDS011;60912;48.968;10.124;2023-08-12T03:04:29;6.03;;;3.80;;
71639;SDS011;60912;48.968;10.124;2023-08-12T03:06:54;8.40;;;3.60;;
71639;SDS011;60912;48.968;10.124;2023-08-12T03:09:20;5.77;;;3.40;;
71639;SDS011;60912;48.968;10.124;2023-08-12T03:11:45;5.57;;;3.17;;
71639;SDS011;60912;48.968;10.124;2023-08-12T03:14:11;6.90;;;3.70;;
71639;SDS011;60912;48.968;10.124;2023-08-12T03:16:36;7.55;;;4.00;;
71639;SDS011;60912;48.968;10.124;2023-08-12T03:19:02;6.43;;;3.60;;
71639;SDS011;60912;48.968;10.124;2023-08-12T03:21:27;10.33;;;3.80;;
71639;SDS011;60912;48.968;10.124;2023-08-12T03:23:53;6.70;;;3.80;;
71639;SDS011;60912;48.968;10.124;2023-08-12T03:26:18;5.80;;;3.22;;
71639;SDS011;60912;48.968;10.124;2023-08-12T03:28:44;4.63;;;3.40;;
71639;SDS011;60912;48.968;10.124;2023-08-12T03:31:10;7.30;;;3.25;;
71639;SDS011;60912;48.968;10.124;2023-08-12T03:33:35;8.00;;;3.57;;
71639;SDS011;60912;48.968;10.124;2023-08-12T03:36:00;9.43;;;3.57;;
71639;SDS011;60912;48.968;10.124;2023-08-12T03:38:26;9.17;;;3.80;;
71639;SDS011;60912;48.968;10.124;2023-08-12T03:40:51;7.50;;;3.60;;
71639;SDS011;60912;48.968;10.124;2023-08-12T03:43:16;5.00;;;3.63;;
71639;SDS011;60912;48.968;10.124;2023-08-12T03:45:42;7.67;;;3.83;;
71639;SDS011;60912;48.968;10.124;2023-08-12T03:48:08;6.85;;;3.70;;
71639;SDS011;60912;48.968;10.124;2023-08-12T03:50:34;5.50;;;3.40;;
71639;SDS011;60912;48.968;10.124;2023-08-12T03:53:00;5.07;;;3.50;;
71639;SDS011;60912;48.968;10.124;2023-08-12T03:55:26;10.07;;;3.70;;
71639;SDS011;60912;48.968;10.124;2023-08-12T03:57:51;8.07;;;3.50;;
71639;SDS011;60912;48.968;10.124;2023-08-12T04:00:17;7.20;;;3.30;;
71639;SDS011;60912;48.968;10.124;2023-08-12T04:02:42;8.77;;;3.37;;
71639;SDS011;60912;48.968;10.124;2023-08-12T04:05:08;10.73;;;4.38;;
71639;SDS011;60912;48.968;10.124;2023-08-12T04:07:35;7.73;;;3.97;;
71639;SDS011;60912;48.968;10.124;2023-08-12T04:10:01;7.80;;;4.35;;
71639;SDS011;60912;48.968;10.124;2023-08-12T04:12:27;9.90;;;3.97;;
71639;SDS011;60912;48.968;10.124;2023-08-12T04:14:52;5.67;;;3.90;;
71639;SDS011;60912;48.968;10.124;2023-08-12T04:17:18;5.73;;;3.87;;
71639;SDS011;60912;48.968;10.124;2023-08-12T04:19:43;6.43;;;3.43;;
71639;SDS011;60912;48.968;10.124;2023-08-12T04:22:08;8.20;;;3.60;;
71639;SDS011;60912;48.968;10.124;2023-08-12T04:24:34;7.37;;;3.37;;
71639;SDS011;60912;48.968;10.124;2023-08-12T04:26:59;7.90;;;3.47;;
71639;SDS011;60912;48.968;10.124;2023-08-12T04:29:24;5.70;;;3.20;;
71639;SDS011;60912;48.968;10.124;2023-08-12T04:31:50;5.37;;;3.33;;
71639;SDS011;60912;48.968;10.124;2023-08-12T04:34:17;7.07;;;3.35;;
71639;SDS011;60912;48.968;10.124;2023-08-12T04:36:42;4.93;;;3.10;;
71639;SDS011;60912;48.968;10.124;2023-08-12T04:39:08;5.27;;;3.07;;
71639;SDS011;60912;48.968;10.124;2023-08-12T04:41:33;4.97;;;2.90;;
71639;SDS011;60912;48.968;10.124;2023-08-12T04:43:59;4.20;;;3.10;;
71639;SDS011;60912;48.968;10.124;2023-08-12T04:46:24;5.23;;;3.10;;
71639;SDS011;60912;48.968;10.124;2023-08-12T04:48:49;4.10;;;3.07;;
71639;SDS011;60912;48.968;10.124;2023-08-12T04:51:15;4.47;;;3.30;;
71639;SDS011;60912;48.968;10.124;2023-08-12T04:53:40;4.95;;;3.40;;
71639;SDS011;60912;48.968;10.124;2023-08-12T04:56:05;4.90;;;3.60;;
71639;SDS011;60912;48.968;10.124;2023-08-12T04:58:31;4.70;;;3.40;;
71639;SDS011;60912;48.968;10.124;2023-08-12T05:00:56;5.60;;;3.60;;
71639;SDS011;60912;48.968;10.124;2023-08-12T05:03:22;5.68;;;3.70;;
71639;SDS011;60912;48.968;10.124;2023-08-12T05:05:51;7.17;;;3.70;;
71639;SDS011;60912;48.968;10.124;2023-08-12T05:08:17;6.13;;;3.72;;
71639;SDS011;60912;48.968;10.124;2023-08-12T05:10:42;6.73;;;3.10;;
71639;SDS011;60912;48.968;10.124;2023-08-12T05:13:08;6.33;;;3.50;;
71639;SDS011;60912;48.968;10.124;2023-08-12T05:15:33;7.87;;;3.73;;
71639;SDS011;60912;48.968;10.124;2023-08-12T05:18:01;10.83;;;6.70;;
71639;SDS011;60912;48.968;10.124;2023-08-12T05:20:27;16.30;;;6.80;;
71639;SDS011;60912;48.968;10.124;2023-08-12T05:22:52;11.33;;;4.40;;
71639;SDS011;60912;48.968;10.124;2023-08-12T05:25:18;9.10;;;3.83;;
71639;SDS011;60912;48.968;10.124;2023-08-12T05:27:43;9.25;;;4.20;;
71639;SDS011;60912;48.968;10.124;2023-08-12T05:30:09;15.33;;;5.53;;
71639;SDS011;60912;48.968;10.124;2023-08-12T05:32:34;8.27;;;3.20;;
71639;SDS011;60912;48.968;10.124;2023-08-12T05:35:00;8.85;;;3.45;;
71639;SDS011;60912;48.968;10.124;2023-08-12T05:37:25;7.43;;;3.70;;
71639;SDS011;60912;48.968;10.124;2023-08-12T05:39:51;8.03;;;3.47;;
71639;SDS011;60912;48.968;10.124;2023-08-12T05:42:16;7.27;;;3.37;;
71639;SDS011;60912;48.968;10.124;2023-08-12T05:44:41;5.53;;;3.70;;
71639;SDS011;60912;48.968;10.124;2023-08-12T05:47:07;8.90;;;3.60;;
71639;SDS011;60912;48.968;10.124;2023-08-12T05:49:33;11.55;;;3.97;;
71639;SDS011;60912;48.968;10.124;2023-08-12T05:51:58;7.10;;;3.40;;
71639;SDS011;60912;48.968;10.124;2023-08-12T05:54:23;6.17;;;3.70;;
71639;SDS011;60912;48.968;10.124;2023-08-12T05:56:49;6.57;;;3.30;;
71639;SDS011;60912;48.968;10.124;2023-08-12T05:59:14;9.43;;;3.87;;
71639;SDS011;60912;48.968;10.124;2023-08-12T06:01:40;7.47;;;3.70;;
71639;SDS011;60912;48.968;10.124;2023-08-12T06:04:05;6.37;;;3.83;;
71639;SDS011;60912;48.968;10.124;2023-08-12T06:06:30;6.40;;;3.30;;
71639;SDS011;60912;48.968;10.124;2023-08-12T06:08:55;5.13;;;3.60;;
71639;SDS011;60912;48.968;10.124;2023-08-12T06:11:21;5.30;;;3.30;;
71639;SDS011;60912;48.968;10.124;2023-08-12T06:13:46;5.87;;;3.73;;
71639;SDS011;60912;48.968;10.124;2023-08-12T06:16:12;8.93;;;3.97;;
71639;SDS011;60912;48.968;10.124;2023-08-12T06:18:37;6.07;;;3.50;;
71639;SDS011;60912;48.968;10.124;2023-08-12T06:21:02;6.43;;;4.07;;
71639;SDS011;60912;48.968;10.124;2023-08-12T06:23:28;5.77;;;3.90;;
71639;SDS011;60912;48.968;10.124;2023-08-12T06:25:54;7.50;;;4.22;;
71639;SDS011;60912;48.968;10.124;2023-08-12T06:28:20;7.70;;;3.83;;
71639;SDS011;60912;48.968;10.124;2023-08-12T06:30:45;7.97;;;4.17;;
71639;SDS011;60912;48.968;10.124;2023-08-12T06:33:12;8.95;;;4.10;;
71639;SDS011;60912;48.968;10.124;2023-08-12T06:35:37;7.23;;;3.83;;
71639;SDS011;60912;48.968;10.124;2023-08-12T06:38:04;7.47;;;3.75;;
71639;SDS011;60912;48.968;10.124;2023-08-12T06:40:30;6.43;;;3.58;;
71639;SDS011;60912;48.968;10.124;2023-08-12T06:42:55;9.57;;;3.90;;
71639;SDS011;60912;48.968;10.124;2023-08-12T06:45:21;6.43;;;4.13;;
71639;SDS011;60912;48.968;10.124;2023-08-12T06:47:46;4.40;;;3.47;;
71639;SDS011;60912;48.968;10.124;2023-08-12T06:50:12;5.13;;;3.67;;
71639;SDS011;60912;48.968;10.124;2023-08-12T06:52:37;5.25;;;3.75;;
71639;SDS011;60912;48.968;10.124;2023-08-12T06:55:02;8.17;;;4.23;;
71639;SDS011;60912;48.968;10.124;2023-08-12T06:57:28;6.53;;;4.13;;
71639;SDS011;60912;48.968;10.124;2023-08-12T06:59:53;6.40;;;4.28;;
71639;SDS011;60912;48.968;10.124;2023-08-12T07:02:19;7.80;;;4.23;;
71639;SDS011;60912;48.968;10.124;2023-08-12T07:04:44;9.17;;;4.13;;
71639;SDS011;60912;48.968;10.124;2023-08-12T07:07:10;7.43;;;3.70;;
71639;SDS011;60912;48.968;10.124;2023-08-12T07:09:35;6.33;;;4.00;;
71639;SDS011;60912;48.968;10.124;2023-08-12T07:12:00;8.30;;;4.30;;
71639;SDS011;60912;48.968;10.124;2023-08-12T07:14:26;9.97;;;4.50;;
71639;SDS011;60912;48.968;10.124;2023-08-12T07:16:53;9.32;;;5.13;;
71639;SDS011;60912;48.968;10.124;2023-08-12T07:19:18;7.30;;;5.00;;
71639;SDS011;60912;48.968;10.124;2023-08-12T07:21:44;10.13;;;4.93;;
71639;SDS011;60912;48.968;10.124;2023-08-12T07:24:09;9.83;;;4.50;;
71639;SDS011;60912;48.968;10.124;2023-08-12T07:26:34;7.43;;;4.50;;
71639;SDS011;60912;48.968;10.124;2023-08-12T07:29:00;6.40;;;3.53;;
71639;SDS011;60912;48.968;10.124;2023-08-12T07:31:25;7.80;;;3.90;;
71639;SDS011;60912;48.968;10.124;2023-08-12T07:33:50;6.27;;;3.63;;
71639;SDS011;60912;48.968;10.124;2023-08-12T07:36:16;6.78;;;3.40;;
71639;SDS011;60912;48.968;10.124;2023-08-12T07:38:41;6.40;;;2.90;;
71639;SDS011;60912;48.968;10.124;2023-08-12T07:41:06;5.30;;;3.40;;
71639;SDS011;60912;48.968;10.124;2023-08-12T07:43:32;7.50;;;3.33;;
71639;SDS011;60912;48.968;10.124;2023-08-12T07:45:57;5.83;;;3.50;;
71639;SDS011;60912;48.968;10.124;2023-08-12T07:48:23;7.30;;;4.22;;
71639;SDS011;60912;48.968;10.124;2023-08-12T07:50:54;10.27;;;4.80;;
71639;SDS011;60912;48.968;10.124;2023-08-12T07:53:23;5.40;;;3.17;;
71639;SDS011;60912;48.968;10.124;2023-08-12T07:55:49;8.63;;;3.40;;
71639;SDS011;60912;48.968;10.124;2023-08-12T07:58:14;9.77;;;3.70;;
71639;SDS011;60912;48.968;10.124;2023-08-12T08:00:40;6.30;;;3.43;;
71639;SDS011;60912;48.968;10.124;2023-08-12T08:03:05;4.70;;;3.30;;
71639;SDS011;60912;48.968;10.124;2023-08-12T08:05:30;7.87;;;3.70;;
71639;SDS011;60912;48.968;10.124;2023-08-12T08:07:56;7.45;;;4.40;;
71639;SDS011;60912;48.968;10.124;2023-08-12T08:10:21;9.27;;;4.57;;
71639;SDS011;60912;48.968;10.124;2023-08-12T08:12:47;10.40;;;4.40;;
71639;SDS011;60912;48.968;10.124;2023-08-12T08:15:12;9.63;;;3.95;;
71639;SDS011;60912;48.968;10.124;2023-08-12T08:17:38;5.03;;;3.30;;
71639;SDS011;60912;48.968;10.124;2023-08-12T08:20:03;7.57;;;3.37;;
71639;SDS011;60912;48.968;10.124;2023-08-12T08:22:30;6.28;;;2.90;;
71639;SDS011;60912;48.968;10.124;2023-08-12T08:24:56;5.22;;;3.47;;
71639;SDS011;60912;48.968;10.124;2023-08-12T08:27:21;7.03;;;3.60;;
71639;SDS011;60912;48.968;10.124;2023-08-12T08:29:47;5.97;;;3.33;;
71639;SDS011;60912;48.968;10.124;2023-08-12T08:32:12;8.40;;;3.10;;
71639;SDS011;60912;48.968;10.124;2023-08-12T08:34:38;8.63;;;3.30;;
71639;SDS011;60912;48.968;10.124;2023-08-12T08:37:03;6.97;;;3.30;;
71639;SDS011;60912;48.968;10.124;2023-08-12T08:39:28;8.17;;;3.50;;
71639;SDS011;60912;48.968;10.124;2023-08-12T08:41:54;7.28;;;3.30;;
71639;SDS011;60912;48.968;10.124;2023-08-12T08:44:22;7.57;;;3.53;;
71639;SDS011;60912;48.968;10.124;2023-08-12T08:46:52;6.13;;;3.20;;
71639;SDS011;60912;48.968;10.124;2023-08-12T08:49:18;5.30;;;3.25;;
71639;SDS011;60912;48.968;10.124;2023-08-12T08:51:46;6.50;;;3.33;;
71639;SDS011;60912;48.968;10.124;2023-08-12T08:54:12;5.60;;;3.10;;
71639;SDS011;60912;48.968;10.124;2023-08-12T08:56:37;5.33;;;2.73;;
71639;SDS011;60912;48.968;10.124;2023-08-12T08:59:03;4.63;;;2.88;;
71639;SDS011;60912;48.968;10.124;2023-08-12T09:01:29;4.97;;;2.50;;
71639;SDS011;60912;48.968;10.124;2023-08-12T09:03:56;8.32;;;2.70;;
71639;SDS011;60912;48.968;10.124;2023-08-12T09:06:22;6.72;;;2.83;;
71639;SDS011;60912;48.968;10.124;2023-08-12T09:08:51;4.22;;;2.65;;
71639;SDS011;60912;48.968;10.124;2023-08-12T09:11:17;5.53;;;2.57;;
71639;SDS011;60912;48.968;10.124;2023-08-12T09:13:43;3.72;;;2.42;;
71639;SDS011;60912;48.968;10.124;2023-08-12T09:16:09;5.25;;;2.83;;
71639;SDS011;60912;48.968;10.124;2023-08-12T09:18:34;5.17;;;2.70;;
71639;SDS011;60912;48.968;10.124;2023-08-12T09:20:59;4.23;;;2.50;;
71639;SDS011;60912;48.968;10.124;2023-08-12T09:23:26;6.60;;;2.90;;
71639;SDS011;60912;48.968;10.124;2023-08-12T09:25:52;4.88;;;2.60;;
71639;SDS011;60912;48.968;10.124;2023-08-12T09:28:18;4.43;;;2.80;;
71639;SDS011;60912;48.968;10.124;2023-08-12T09:30:44;4.00;;;2.40;;
71639;SDS011;60912;48.968;10.124;2023-08-12T09:33:16;4.47;;;2.70;;
71639;SDS011;60912;48.968;10.124;2023-08-12T09:35:49;6.00;;;2.70;;
71639;SDS011;60912;48.968;10.124;2023-08-12T09:38:15;5.47;;;2.63;;
71639;SDS011;60912;48.968;10.124;2023-08-12T09:40:40;4.73;;;2.70;;
71639;SDS011;60912;48.968;10.124;2023-08-12T09:43:06;7.82;;;3.25;;
71639;SDS011;60912;48.968;10.124;2023-08-12T09:45:32;3.57;;;2.33;;
71639;SDS011;60912;48.968;10.124;2023-08-12T09:47:58;4.00;;;2.50;;
71639;SDS011;60912;48.968;10.124;2023-08-12T09:50:24;4.70;;;2.50;;
71639;SDS011;60912;48.968;10.124;2023-08-12T09:52:51;4.57;;;2.60;;
71639;SDS011;60912;48.968;10.124;2023-08-12T09:55:17;3.67;;;2.78;;
71639;SDS011;60912;48.968;10.124;2023-08-12T09:57:44;5.55;;;2.50;;
71639;SDS011;60912;48.968;10.124;2023-08-12T10:00:13;4.30;;;2.30;;
71639;SDS011;60912;48.968;10.124;2023-08-12T10:02:43;6.70;;;2.30;;
71639;SDS011;60912;48.968;10.124;2023-08-12T10:05:11;3.63;;;2.42;;
71639;SDS011;60912;48.968;10.124;2023-08-12T10:07:41;4.90;;;2.53;;
71639;SDS011;60912;48.968;10.124;2023-08-12T10:10:06;4.22;;;2.38;;
71639;SDS011;60912;48.968;10.124;2023-08-12T10:12:34;4.90;;;2.60;;
71639;SDS011;60912;48.968;10.124;2023-08-12T10:15:00;5.10;;;2.45;;
71639;SDS011;60912;48.968;10.124;2023-08-12T10:17:26;5.22;;;2.60;;
71639;SDS011;60912;48.968;10.124;2023-08-12T10:19:56;5.18;;;2.20;;
71639;SDS011;60912;48.968;10.124;2023-08-12T10:22:25;3.72;;;2.50;;
71639;SDS011;60912;48.968;10.124;2023-08-12T10:24:51;3.93;;;2.20;;
71639;SDS011;60912;48.968;10.124;2023-08-12T10:27:17;3.50;;;2.55;;
71639;SDS011;60912;48.968;10.124;2023-08-12T10:29:43;5.50;;;2.33;;
71639;SDS011;60912;48.968;10.124;2023-08-12T10:32:08;6.13;;;2.60;;
71639;SDS011;60912;48.968;10.124;2023-08-12T10:34:34;3.90;;;2.30;;
71639;SDS011;60912;48.968;10.124;2023-08-12T10:37:02;6.38;;;2.28;;
71639;SDS011;60912;48.968;10.124;2023-08-12T10:39:29;3.97;;;2.37;;
71639;SDS011;60912;48.968;10.124;2023-08-12T10:41:57;5.35;;;2.30;;
71639;SDS011;60912;48.968;10.124;2023-08-12T10:44:26;4.55;;;2.38;;
71639;SDS011;60912;48.968;10.124;2023-08-12T10:47:05;6.15;;;2.45;;
71639;SDS011;60912;48.968;10.124;2023-08-12T10:49:37;6.35;;;2.25;;
71639;SDS011;60912;48.968;10.124;2023-08-12T10:52:03;4.30;;;2.50;;
71639;SDS011;60912;48.968;10.124;2023-08-12T10:54:29;3.10;;;2.10;;
71639;SDS011;60912;48.968;10.124;2023-08-12T10:59:53;3.42;;;2.00;;
71639;SDS011;60912;48.968;10.124;2023-08-12T11:04:59;4.03;;;2.10;;
71639;SDS011;60912;48.968;10.124;2023-08-12T11:07:31;3.40;;;2.00;;
71639;SDS011;60912;48.968;10.124;2023-08-12T11:10:15;3.83;;;1.80;;
71639;SDS011;60912;48.968;10.124;2023-08-12T11:15:17;5.10;;;2.45;;
71639;SDS011;60912;48.968;10.124;2023-08-12T11:17:45;3.47;;;2.15;;
71639;SDS011;60912;48.968;10.124;2023-08-12T11:20:12;3.47;;;2.30;;
71639;SDS011;60912;48.968;10.124;2023-08-12T11:22:39;6.40;;;2.40;;
71639;SDS011;60912;48.968;10.124;2023-08-12T11:25:14;6.40;;;2.10;;
71639;SDS011;60912;48.968;10.124;2023-08-12T11:27:41;5.30;;;2.40;;
71639;SDS011;60912;48.968;10.124;2023-08-12T11:30:08;4.97;;;2.15;;
71639;SDS011;60912;48.968;10.124;2023-08-12T11:32:36;3.90;;;2.35;;
71639;SDS011;60912;48.968;10.124;2023-08-12T11:35:03;4.20;;;2.37;;
71639;SDS011;60912;48.968;10.124;2023-08-12T11:37:30;4.25;;;2.30;;
71639;SDS011;60912;48.968;10.124;2023-08-12T11:39:56;3.90;;;2.30;;
71639;SDS011;60912;48.968;10.124;2023-08-12T11:42:21;6.57;;;2.50;;
71639;SDS011;60912;48.968;10.124;2023-08-12T11:44:47;3.73;;;2.30;;
71639;SDS011;60912;48.968;10.124;2023-08-12T11:47:12;8.63;;;2.70;;
71639;SDS011;60912;48.968;10.124;2023-08-12T11:49:37;4.63;;;2.10;;
71639;SDS011;60912;48.968;10.124;2023-08-12T11:52:03;6.53;;;2.30;;
71639;SDS011;60912;48.968;10.124;2023-08-12T11:54:28;7.45;;;2.50;;
71639;SDS011;60912;48.968;10.124;2023-08-12T11:56:54;3.67;;;2.30;;
71639;SDS011;60912;48.968;10.124;2023-08-12T11:59:22;4.63;;;2.30;;
71639;SDS011;60912;48.968;10.124;2023-08-12T12:01:51;3.75;;;2.35;;
71639;SDS011;60912;48.968;10.124;2023-08-12T12:04:16;4.18;;;2.10;;
71639;SDS011;60912;48.968;10.124;2023-08-12T12:06:45;3.70;;;2.20;;
71639;SDS011;60912;48.968;10.124;2023-08-12T12:09:11;3.77;;;2.13;;
71639;SDS011;60912;48.968;10.124;2023-08-12T12:11:39;3.70;;;2.20;;
71639;SDS011;60912;48.968;10.124;2023-08-12T12:14:06;4.03;;;2.20;;
71639;SDS011;60912;48.968;10.124;2023-08-12T12:16:44;4.40;;;2.22;;
71639;SDS011;60912;48.968;10.124;2023-08-12T12:19:16;4.70;;;2.28;;
71639;SDS011;60912;48.968;10.124;2023-08-12T12:21:42;4.40;;;1.93;;
71639;SDS011;60912;48.968;10.124;2023-08-12T12:24:11;4.63;;;2.13;;
71639;SDS011;60912;48.968;10.124;2023-08-12T12:26:36;4.13;;;2.10;;
71639;SDS011;60912;48.968;10.124;2023-08-12T12:29:05;5.50;;;2.20;;
71639;SDS011;60912;48.968;10.124;2023-08-12T12:31:32;5.97;;;2.10;;
71639;SDS011;60912;48.968;10.124;2023-08-12T12:33:59;4.25;;;1.90;;
71639;SDS011;60912;48.968;10.124;2023-08-12T12:36:25;5.35;;;2.30;;
71639;SDS011;60912;48.968;10.124;2023-08-12T12:38:51;5.80;;;2.27;;
71639;SDS011;60912;48.968;10.124;2023-08-12T12:41:16;5.23;;;2.30;;
71639;SDS011;60912;48.968;10.124;2023-08-12T12:43:42;6.57;;;2.30;;
71639;SDS011;60912;48.968;10.124;2023-08-12T12:46:07;5.30;;;2.07;;
71639;SDS011;60912;48.968;10.124;2023-08-12T12:48:33;5.10;;;2.10;;
71639;SDS011;60912;48.968;10.124;2023-08-12T12:50:59;4.37;;;1.90;;
71639;SDS011;60912;48.968;10.124;2023-08-12T12:53:24;4.57;;;2.10;;
71639;SDS011;60912;48.968;10.124;2023-08-12T12:55:49;6.17;;;2.20;;
71639;SDS011;60912;48.968;10.124;2023-08-12T12:58:15;5.63;;;2.25;;
71639;SDS011;60912;48.968;10.124;2023-08-12T13:00:41;3.70;;;1.87;;
71639;SDS011;60912;48.968;10.124;2023-08-12T13:03:06;6.85;;;2.35;;
71639;SDS011;60912;48.968;10.124;2023-08-12T13:05:32;6.77;;;2.13;;
71639;SDS011;60912;48.968;10.124;2023-08-12T13:07:57;6.03;;;2.17;;
71639;SDS011;60912;48.968;10.124;2023-08-12T13:10:22;5.63;;;2.40;;
71639;SDS011;60912;48.968;10.124;2023-08-12T13:12:48;4.90;;;2.20;;
71639;SDS011;60912;48.968;10.124;2023-08-12T13:15:13;4.13;;;2.03;;
71639;SDS011;60912;48.968;10.124;2023-08-12T13:17:39;8.57;;;2.50;;
71639;SDS011;60912;48.968;10.124;2023-08-12T13:20:04;7.63;;;2.27;;
71639;SDS011;60912;48.968;10.124;2023-08-12T13:22:30;6.90;;;2.22;;
71639;SDS011;60912;48.968;10.124;2023-08-12T13:24:55;4.97;;;2.20;;
71639;SDS011;60912;48.968;10.124;2023-08-12T13:27:21;7.67;;;2.40;;
71639;SDS011;60912;48.968;10.124;2023-08-12T13:29:46;5.17;;;2.30;;
71639;SDS011;60912;48.968;10.124;2023-08-12T13:32:11;4.75;;;2.08;;
71639;SDS011;60912;48.968;10.124;2023-08-12T13:34:37;7.30;;;2.40;;
71639;SDS011;60912;48.968;10.124;2023-08-12T13:37:02;6.13;;;2.47;;
71639;SDS011;60912;48.968;10.124;2023-08-12T13:39:27;7.63;;;2.97;;
71639;SDS011;60912;48.968;10.124;2023-08-12T13:41:53;6.30;;;3.17;;
71639;SDS011;60912;48.968;10.124;2023-08-12T13:44:19;6.43;;;3.28;;
71639;SDS011;60912;48.968;10.124;2023-08-12T13:46:45;6.03;;;3.00;;
71639;SDS011;60912;48.968;10.124;2023-08-12T13:49:10;5.13;;;3.20;;
71639;SDS011;60912;48.968;10.124;2023-08-12T13:51:36;6.97;;;3.35;;
71639;SDS011;60912;48.968;10.124;2023-08-12T13:54:02;8.13;;;3.30;;
71639;SDS011;60912;48.968;10.124;2023-08-12T13:56:27;6.57;;;3.13;;
71639;SDS011;60912;48.968;10.124;2023-08-12T13:58:53;5.17;;;2.87;;
71639;SDS011;60912;48.968;10.124;2023-08-12T14:01:18;5.43;;;2.70;;
71639;SDS011;60912;48.968;10.124;2023-08-12T14:03:43;9.53;;;3.00;;
71639;SDS011;60912;48.968;10.124;2023-08-12T14:06:09;5.17;;;2.83;;
71639;SDS011;60912;48.968;10.124;2023-08-12T14:08:34;4.30;;;2.50;;
71639;SDS011;60912;48.968;10.124;2023-08-12T14:11:00;7.40;;;2.90;;
71639;SDS011;60912;48.968;10.124;2023-08-12T14:13:25;7.47;;;2.63;;
71639;SDS011;60912;48.968;10.124;2023-08-12T14:15:50;4.23;;;2.20;;
71639;SDS011;60912;48.968;10.124;2023-08-12T14:18:18;6.63;;;3.05;;
71639;SDS011;60912;48.968;10.124;2023-08-12T14:20:43;6.57;;;2.70;;
71639;SDS011;60912;48.968;10.124;2023-08-12T14:23:08;9.43;;;3.20;;
71639;SDS011;60912;48.968;10.124;2023-08-12T14:25:34;5.80;;;3.00;;
71639;SDS011;60912;48.968;10.124;2023-08-12T14:28:02;4.60;;;2.63;;
71639;SDS011;60912;48.968;10.124;2023-08-12T14:30:28;5.15;;;2.47;;
71639;SDS011;60912;48.968;10.124;2023-08-12T14:32:53;5.90;;;2.90;;
71639;SDS011;60912;48.968;10.124;2023-08-12T14:35:18;5.43;;;2.58;;
71639;SDS011;60912;48.968;10.124;2023-08-12T14:37:44;4.80;;;2.67;;
71639;SDS011;60912;48.968;10.124;2023-08-12T14:40:09;4.67;;;2.77;;